sensor_id;sensor_type;location;lat;lon;timestamp;P1;durP1;ratioP1;P2;durP2;ratioP2
5871;SDS011;2962;51.312;7.378;2023-04-09T00:01:38;77.43;;;33.10;;
5871;SDS011;2962;51.312;7.378;2023-04-09T00:04:03;64.57;;;31.70;;
5871;SDS011;2962;51.312;7.378;2023-04-09T00:06:28;71.50;;;31.83;;
5871;SDS011;2962;51.312;7.378;2023-04-09T00:08:55;72.93;;;31.90;;
5871;SDS011;2962;51.312;7.378;2023-04-09T00:11:20;71.50;;;32.37;;
5871;SDS011;2962;51.312;7.378;2023-04-09T00:13:46;69.23;;;32.80;;
5871;SDS011;2962;51.312;7.378;2023-04-09T00:16:11;83.50;;;31.20;;
5871;SDS011;2962;51.312;7.378;2023-04-09T00:18:37;75.80;;;33.20;;
5871;SDS011;2962;51.312;7.378;2023-04-09T00:21:02;81.27;;;31.70;;
5871;SDS011;2962;51.312;7.378;2023-04-09T00:23:27;66.57;;;32.40;;
5871;SDS011;2962;51.312;7.378;2023-04-09T00:25:53;72.37;;;32.80;;
5871;SDS011;2962;51.312;7.378;2023-04-09T00:28:18;76.33;;;32.40;;
5871;SDS011;2962;51.312;7.378;2023-04-09T00:30:44;72.50;;;33.07;;
5871;SDS011;2962;51.312;7.378;2023-04-09T00:33:09;65.30;;;30.77;;
5871;SDS011;2962;51.312;7.378;2023-04-09T00:35:34;72.77;;;31.87;;
5871;SDS011;2962;51.312;7.378;2023-04-09T00:38:00;71.27;;;31.50;;
5871;SDS011;2962;51.312;7.378;2023-04-09T00:40:25;75.93;;;31.53;;
5871;SDS011;2962;51.312;7.378;2023-04-09T00:42:51;71.70;;;31.92;;
5871;SDS011;2962;51.312;7.378;2023-04-09T00:45:17;78.43;;;33.40;;
5871;SDS011;2962;51.312;7.378;2023-04-09T00:47:42;69.73;;;31.60;;
5871;SDS011;2962;51.312;7.378;2023-04-09T00:50:09;76.20;;;34.22;;
5871;SDS011;2962;51.312;7.378;2023-04-09T00:52:35;69.97;;;31.50;;
5871;SDS011;2962;51.312;7.378;2023-04-09T00:55:02;77.57;;;32.90;;
5871;SDS011;2962;51.312;7.378;2023-04-09T00:57:30;73.60;;;32.75;;
5871;SDS011;2962;51.312;7.378;2023-04-09T00:59:55;74.13;;;32.20;;
5871;SDS011;2962;51.312;7.378;2023-04-09T01:02:21;65.90;;;31.10;;
5871;SDS011;2962;51.312;7.378;2023-04-09T01:04:46;65.50;;;31.43;;
5871;SDS011;2962;51.312;7.378;2023-04-09T01:07:24;63.37;;;30.67;;
5871;SDS011;2962;51.312;7.378;2023-04-09T01:09:53;71.90;;;31.05;;
5871;SDS011;2962;51.312;7.378;2023-04-09T01:15:10;63.60;;;29.50;;
5871;SDS011;2962;51.312;7.378;2023-04-09T01:17:49;67.65;;;30.42;;
5871;SDS011;2962;51.312;7.378;2023-04-09T01:26:10;61.00;;;30.25;;
5871;SDS011;2962;51.312;7.378;2023-04-09T01:28:57;69.60;;;30.70;;
5871;SDS011;2962;51.312;7.378;2023-04-09T01:31:28;66.72;;;29.25;;
5871;SDS011;2962;51.312;7.378;2023-04-09T01:33:56;63.70;;;30.17;;
5871;SDS011;2962;51.312;7.378;2023-04-09T01:36:23;62.05;;;28.88;;
5871;SDS011;2962;51.312;7.378;2023-04-09T01:38:51;66.25;;;29.50;;
5871;SDS011;2962;51.312;7.378;2023-04-09T01:41:20;59.58;;;27.77;;
5871;SDS011;2962;51.312;7.378;2023-04-09T01:43:49;61.00;;;28.73;;
5871;SDS011;2962;51.312;7.378;2023-04-09T01:46:16;63.30;;;28.33;;
5871;SDS011;2962;51.312;7.378;2023-04-09T01:48:42;62.60;;;28.80;;
5871;SDS011;2962;51.312;7.378;2023-04-09T01:51:08;59.10;;;27.55;;
5871;SDS011;2962;51.312;7.378;2023-04-09T01:53:34;63.50;;;27.40;;
5871;SDS011;2962;51.312;7.378;2023-04-09T01:56:00;63.45;;;27.48;;
5871;SDS011;2962;51.312;7.378;2023-04-09T01:58:26;62.07;;;28.37;;
5871;SDS011;2962;51.312;7.378;2023-04-09T02:00:54;56.93;;;26.93;;
5871;SDS011;2962;51.312;7.378;2023-04-09T02:03:24;49.75;;;24.45;;
5871;SDS011;2962;51.312;7.378;2023-04-09T02:05:59;51.33;;;26.20;;
5871;SDS011;2962;51.312;7.378;2023-04-09T02:08:30;63.42;;;26.40;;
5871;SDS011;2962;51.312;7.378;2023-04-09T02:10:59;51.70;;;25.95;;
5871;SDS011;2962;51.312;7.378;2023-04-09T02:13:28;47.92;;;24.83;;
5871;SDS011;2962;51.312;7.378;2023-04-09T02:15:57;50.95;;;25.02;;
5871;SDS011;2962;51.312;7.378;2023-04-09T02:18:24;48.53;;;23.77;;
5871;SDS011;2962;51.312;7.378;2023-04-09T02:20:57;50.15;;;23.38;;
5871;SDS011;2962;51.312;7.378;2023-04-09T02:23:23;53.38;;;23.33;;
5871;SDS011;2962;51.312;7.378;2023-04-09T02:25:49;43.20;;;22.08;;
5871;SDS011;2962;51.312;7.378;2023-04-09T02:28:15;44.90;;;21.33;;
5871;SDS011;2962;51.312;7.378;2023-04-09T02:30:40;33.80;;;19.70;;
5871;SDS011;2962;51.312;7.378;2023-04-09T02:33:06;38.47;;;19.77;;
5871;SDS011;2962;51.312;7.378;2023-04-09T02:35:31;39.13;;;20.10;;
5871;SDS011;2962;51.312;7.378;2023-04-09T02:37:57;35.27;;;19.70;;
5871;SDS011;2962;51.312;7.378;2023-04-09T02:40:22;31.67;;;18.03;;
5871;SDS011;2962;51.312;7.378;2023-04-09T02:42:47;35.83;;;19.17;;
5871;SDS011;2962;51.312;7.378;2023-04-09T02:45:13;33.53;;;17.57;;
5871;SDS011;2962;51.312;7.378;2023-04-09T02:47:38;34.03;;;17.00;;
5871;SDS011;2962;51.312;7.378;2023-04-09T02:50:04;32.33;;;16.73;;
5871;SDS011;2962;51.312;7.378;2023-04-09T02:52:30;28.92;;;14.85;;
5871;SDS011;2962;51.312;7.378;2023-04-09T02:54:55;32.87;;;17.20;;
5871;SDS011;2962;51.312;7.378;2023-04-09T02:57:21;22.57;;;14.97;;
5871;SDS011;2962;51.312;7.378;2023-04-09T02:59:46;25.13;;;15.00;;
5871;SDS011;2962;51.312;7.378;2023-04-09T03:02:11;26.07;;;14.50;;
5871;SDS011;2962;51.312;7.378;2023-04-09T03:04:37;24.03;;;14.80;;
5871;SDS011;2962;51.312;7.378;2023-04-09T03:07:03;23.90;;;14.07;;
5871;SDS011;2962;51.312;7.378;2023-04-09T03:09:28;21.47;;;13.27;;
5871;SDS011;2962;51.312;7.378;2023-04-09T03:11:54;23.70;;;13.83;;
5871;SDS011;2962;51.312;7.378;2023-04-09T03:14:21;17.30;;;12.15;;
5871;SDS011;2962;51.312;7.378;2023-04-09T03:16:49;20.70;;;12.75;;
5871;SDS011;2962;51.312;7.378;2023-04-09T03:19:14;23.67;;;12.93;;
5871;SDS011;2962;51.312;7.378;2023-04-09T03:21:40;21.67;;;14.13;;
5871;SDS011;2962;51.312;7.378;2023-04-09T03:24:06;22.13;;;12.00;;
5871;SDS011;2962;51.312;7.378;2023-04-09T03:26:32;20.13;;;13.67;;
5871;SDS011;2962;51.312;7.378;2023-04-09T03:29:03;22.02;;;12.57;;
5871;SDS011;2962;51.312;7.378;2023-04-09T03:31:30;21.38;;;13.40;;
5871;SDS011;2962;51.312;7.378;2023-04-09T03:33:55;24.27;;;13.77;;
5871;SDS011;2962;51.312;7.378;2023-04-09T03:36:21;16.53;;;11.50;;
5871;SDS011;2962;51.312;7.378;2023-04-09T03:38:46;19.30;;;12.30;;
5871;SDS011;2962;51.312;7.378;2023-04-09T03:41:11;21.93;;;12.80;;
5871;SDS011;2962;51.312;7.378;2023-04-09T03:43:37;20.10;;;12.70;;
5871;SDS011;2962;51.312;7.378;2023-04-09T03:46:10;18.40;;;11.63;;
5871;SDS011;2962;51.312;7.378;2023-04-09T03:48:39;19.45;;;12.07;;
5871;SDS011;2962;51.312;7.378;2023-04-09T03:51:05;17.63;;;11.10;;
5871;SDS011;2962;51.312;7.378;2023-04-09T03:53:30;18.90;;;11.43;;
5871;SDS011;2962;51.312;7.378;2023-04-09T03:55:56;21.77;;;11.77;;
5871;SDS011;2962;51.312;7.378;2023-04-09T03:58:21;15.20;;;11.10;;
5871;SDS011;2962;51.312;7.378;2023-04-09T04:00:46;17.87;;;11.97;;
5871;SDS011;2962;51.312;7.378;2023-04-09T04:03:12;22.73;;;11.45;;
5871;SDS011;2962;51.312;7.378;2023-04-09T04:05:40;15.82;;;10.98;;
5871;SDS011;2962;51.312;7.378;2023-04-09T04:08:05;18.30;;;10.90;;
5871;SDS011;2962;51.312;7.378;2023-04-09T04:10:32;15.10;;;9.90;;
5871;SDS011;2962;51.312;7.378;2023-04-09T04:12:58;14.52;;;10.30;;
5871;SDS011;2962;51.312;7.378;2023-04-09T04:15:23;16.20;;;10.23;;
5871;SDS011;2962;51.312;7.378;2023-04-09T04:17:48;15.30;;;9.67;;
5871;SDS011;2962;51.312;7.378;2023-04-09T04:20:14;18.30;;;10.40;;
5871;SDS011;2962;51.312;7.378;2023-04-09T04:22:39;14.87;;;9.73;;
5871;SDS011;2962;51.312;7.378;2023-04-09T04:25:04;15.83;;;9.97;;
5871;SDS011;2962;51.312;7.378;2023-04-09T04:27:30;14.13;;;9.50;;
5871;SDS011;2962;51.312;7.378;2023-04-09T04:29:56;14.37;;;9.73;;
5871;SDS011;2962;51.312;7.378;2023-04-09T04:32:22;11.82;;;8.38;;
5871;SDS011;2962;51.312;7.378;2023-04-09T04:34:48;13.30;;;9.10;;
5871;SDS011;2962;51.312;7.378;2023-04-09T04:37:14;12.40;;;8.55;;
5871;SDS011;2962;51.312;7.378;2023-04-09T04:39:39;13.07;;;8.83;;
5871;SDS011;2962;51.312;7.378;2023-04-09T04:42:05;17.10;;;8.60;;
5871;SDS011;2962;51.312;7.378;2023-04-09T04:44:30;12.40;;;8.37;;
5871;SDS011;2962;51.312;7.378;2023-04-09T04:46:55;12.13;;;8.47;;
5871;SDS011;2962;51.312;7.378;2023-04-09T04:49:21;15.63;;;9.57;;
5871;SDS011;2962;51.312;7.378;2023-04-09T04:51:46;16.47;;;9.30;;
5871;SDS011;2962;51.312;7.378;2023-04-09T04:54:11;10.53;;;8.00;;
5871;SDS011;2962;51.312;7.378;2023-04-09T04:56:36;13.30;;;9.30;;
5871;SDS011;2962;51.312;7.378;2023-04-09T04:59:02;11.50;;;8.57;;
5871;SDS011;2962;51.312;7.378;2023-04-09T05:01:27;12.87;;;8.73;;
5871;SDS011;2962;51.312;7.378;2023-04-09T05:03:52;14.47;;;10.07;;
5871;SDS011;2962;51.312;7.378;2023-04-09T05:06:18;11.87;;;8.70;;
5871;SDS011;2962;51.312;7.378;2023-04-09T05:08:43;12.17;;;9.17;;
5871;SDS011;2962;51.312;7.378;2023-04-09T05:11:10;15.63;;;9.50;;
5871;SDS011;2962;51.312;7.378;2023-04-09T05:13:36;15.68;;;9.63;;
5871;SDS011;2962;51.312;7.378;2023-04-09T05:16:01;17.17;;;10.47;;
5871;SDS011;2962;51.312;7.378;2023-04-09T05:18:27;15.43;;;10.20;;
5871;SDS011;2962;51.312;7.378;2023-04-09T05:20:53;13.80;;;9.00;;
5871;SDS011;2962;51.312;7.378;2023-04-09T05:23:18;17.40;;;9.33;;
5871;SDS011;2962;51.312;7.378;2023-04-09T05:25:43;13.27;;;9.60;;
5871;SDS011;2962;51.312;7.378;2023-04-09T05:28:08;14.93;;;9.63;;
5871;SDS011;2962;51.312;7.378;2023-04-09T05:30:35;15.57;;;9.90;;
5871;SDS011;2962;51.312;7.378;2023-04-09T05:33:00;16.03;;;10.60;;
5871;SDS011;2962;51.312;7.378;2023-04-09T05:35:26;13.53;;;10.60;;
5871;SDS011;2962;51.312;7.378;2023-04-09T05:37:51;19.53;;;12.10;;
5871;SDS011;2962;51.312;7.378;2023-04-09T05:40:16;21.60;;;11.00;;
5871;SDS011;2962;51.312;7.378;2023-04-09T05:42:42;16.67;;;11.37;;
5871;SDS011;2962;51.312;7.378;2023-04-09T05:45:07;17.43;;;10.73;;
5871;SDS011;2962;51.312;7.378;2023-04-09T05:47:33;17.90;;;11.40;;
5871;SDS011;2962;51.312;7.378;2023-04-09T05:49:58;20.43;;;11.00;;
5871;SDS011;2962;51.312;7.378;2023-04-09T05:52:24;20.40;;;12.37;;
5871;SDS011;2962;51.312;7.378;2023-04-09T05:54:49;17.10;;;11.23;;
5871;SDS011;2962;51.312;7.378;2023-04-09T05:57:15;15.13;;;10.60;;
5871;SDS011;2962;51.312;7.378;2023-04-09T05:59:40;18.73;;;12.27;;
5871;SDS011;2962;51.312;7.378;2023-04-09T06:02:05;18.63;;;12.07;;
5871;SDS011;2962;51.312;7.378;2023-04-09T06:04:31;19.67;;;11.80;;
5871;SDS011;2962;51.312;7.378;2023-04-09T06:06:56;21.97;;;12.70;;
5871;SDS011;2962;51.312;7.378;2023-04-09T06:09:24;17.23;;;12.00;;
5871;SDS011;2962;51.312;7.378;2023-04-09T06:11:50;22.53;;;12.20;;
5871;SDS011;2962;51.312;7.378;2023-04-09T06:14:15;23.40;;;13.20;;
5871;SDS011;2962;51.312;7.378;2023-04-09T06:16:42;17.87;;;12.23;;
5871;SDS011;2962;51.312;7.378;2023-04-09T06:19:07;16.50;;;11.57;;
5871;SDS011;2962;51.312;7.378;2023-04-09T06:21:32;19.93;;;12.30;;
5871;SDS011;2962;51.312;7.378;2023-04-09T06:23:58;21.30;;;12.30;;
5871;SDS011;2962;51.312;7.378;2023-04-09T06:26:23;19.73;;;11.67;;
5871;SDS011;2962;51.312;7.378;2023-04-09T06:28:48;20.47;;;12.00;;
5871;SDS011;2962;51.312;7.378;2023-04-09T06:31:14;17.60;;;12.33;;
5871;SDS011;2962;51.312;7.378;2023-04-09T06:33:39;17.70;;;11.77;;
5871;SDS011;2962;51.312;7.378;2023-04-09T06:36:04;14.97;;;10.27;;
5871;SDS011;2962;51.312;7.378;2023-04-09T06:38:30;18.07;;;11.53;;
5871;SDS011;2962;51.312;7.378;2023-04-09T06:40:56;16.70;;;11.37;;
5871;SDS011;2962;51.312;7.378;2023-04-09T06:43:21;17.40;;;11.90;;
5871;SDS011;2962;51.312;7.378;2023-04-09T06:45:47;16.87;;;11.50;;
5871;SDS011;2962;51.312;7.378;2023-04-09T06:48:12;17.63;;;12.50;;
5871;SDS011;2962;51.312;7.378;2023-04-09T06:50:38;24.50;;;15.03;;
5871;SDS011;2962;51.312;7.378;2023-04-09T06:53:04;19.40;;;11.13;;
5871;SDS011;2962;51.312;7.378;2023-04-09T06:55:30;20.50;;;11.27;;
5871;SDS011;2962;51.312;7.378;2023-04-09T06:57:56;20.87;;;11.83;;
5871;SDS011;2962;51.312;7.378;2023-04-09T07:00:21;17.77;;;11.60;;
5871;SDS011;2962;51.312;7.378;2023-04-09T07:02:47;18.80;;;11.67;;
5871;SDS011;2962;51.312;7.378;2023-04-09T07:05:13;16.37;;;11.73;;
5871;SDS011;2962;51.312;7.378;2023-04-09T07:07:38;18.40;;;11.70;;
5871;SDS011;2962;51.312;7.378;2023-04-09T07:10:03;16.80;;;12.23;;
5871;SDS011;2962;51.312;7.378;2023-04-09T07:12:30;13.43;;;10.70;;
5871;SDS011;2962;51.312;7.378;2023-04-09T07:14:57;16.57;;;10.77;;
5871;SDS011;2962;51.312;7.378;2023-04-09T07:17:24;16.30;;;11.40;;
5871;SDS011;2962;51.312;7.378;2023-04-09T07:19:49;16.10;;;11.23;;
5871;SDS011;2962;51.312;7.378;2023-04-09T07:22:16;15.93;;;10.80;;
5871;SDS011;2962;51.312;7.378;2023-04-09T07:24:41;18.90;;;11.50;;
5871;SDS011;2962;51.312;7.378;2023-04-09T07:27:07;15.10;;;10.57;;
5871;SDS011;2962;51.312;7.378;2023-04-09T07:29:32;16.60;;;11.00;;
5871;SDS011;2962;51.312;7.378;2023-04-09T07:31:57;13.93;;;11.40;;
5871;SDS011;2962;51.312;7.378;2023-04-09T07:34:25;16.20;;;11.17;;
5871;SDS011;2962;51.312;7.378;2023-04-09T07:36:50;12.63;;;9.90;;
5871;SDS011;2962;51.312;7.378;2023-04-09T07:39:16;12.93;;;10.53;;
5871;SDS011;2962;51.312;7.378;2023-04-09T07:41:42;16.53;;;10.70;;
5871;SDS011;2962;51.312;7.378;2023-04-09T07:44:07;15.70;;;10.63;;
5871;SDS011;2962;51.312;7.378;2023-04-09T07:46:33;15.87;;;10.57;;
5871;SDS011;2962;51.312;7.378;2023-04-09T07:48:58;15.30;;;10.80;;
5871;SDS011;2962;51.312;7.378;2023-04-09T07:51:24;13.37;;;10.10;;
5871;SDS011;2962;51.312;7.378;2023-04-09T07:53:49;19.70;;;11.47;;
5871;SDS011;2962;51.312;7.378;2023-04-09T07:56:14;17.50;;;12.07;;
5871;SDS011;2962;51.312;7.378;2023-04-09T07:58:39;16.30;;;11.53;;
5871;SDS011;2962;51.312;7.378;2023-04-09T08:01:05;15.10;;;11.97;;
5871;SDS011;2962;51.312;7.378;2023-04-09T08:03:30;12.20;;;9.37;;
5871;SDS011;2962;51.312;7.378;2023-04-09T08:05:56;14.50;;;10.37;;
5871;SDS011;2962;51.312;7.378;2023-04-09T08:08:21;15.17;;;10.53;;
5871;SDS011;2962;51.312;7.378;2023-04-09T08:10:46;14.40;;;11.00;;
5871;SDS011;2962;51.312;7.378;2023-04-09T08:13:12;14.40;;;10.60;;
5871;SDS011;2962;51.312;7.378;2023-04-09T08:15:37;15.03;;;10.00;;
5871;SDS011;2962;51.312;7.378;2023-04-09T08:18:02;16.27;;;10.77;;
5871;SDS011;2962;51.312;7.378;2023-04-09T08:20:28;15.47;;;11.37;;
5871;SDS011;2962;51.312;7.378;2023-04-09T08:22:54;12.70;;;9.53;;
5871;SDS011;2962;51.312;7.378;2023-04-09T08:25:19;12.07;;;9.43;;
5871;SDS011;2962;51.312;7.378;2023-04-09T08:27:45;12.33;;;8.67;;
5871;SDS011;2962;51.312;7.378;2023-04-09T08:30:11;12.47;;;9.93;;
5871;SDS011;2962;51.312;7.378;2023-04-09T08:32:36;10.33;;;8.83;;
5871;SDS011;2962;51.312;7.378;2023-04-09T08:35:01;10.77;;;9.03;;
5871;SDS011;2962;51.312;7.378;2023-04-09T08:37:27;12.33;;;8.50;;
5871;SDS011;2962;51.312;7.378;2023-04-09T08:39:53;8.17;;;7.40;;
5871;SDS011;2962;51.312;7.378;2023-04-09T08:42:18;10.13;;;8.60;;
5871;SDS011;2962;51.312;7.378;2023-04-09T08:44:45;8.90;;;7.90;;
5871;SDS011;2962;51.312;7.378;2023-04-09T08:47:11;9.80;;;8.00;;
5871;SDS011;2962;51.312;7.378;2023-04-09T08:49:40;9.00;;;8.03;;
5871;SDS011;2962;51.312;7.378;2023-04-09T08:52:05;6.63;;;6.13;;
5871;SDS011;2962;51.312;7.378;2023-04-09T08:54:31;6.27;;;5.87;;
5871;SDS011;2962;51.312;7.378;2023-04-09T08:56:56;8.13;;;5.83;;
5871;SDS011;2962;51.312;7.378;2023-04-09T08:59:22;7.20;;;6.60;;
5871;SDS011;2962;51.312;7.378;2023-04-09T09:01:48;6.80;;;6.17;;
5871;SDS011;2962;51.312;7.378;2023-04-09T09:04:18;6.77;;;6.23;;
5871;SDS011;2962;51.312;7.378;2023-04-09T09:06:43;7.13;;;6.43;;
5871;SDS011;2962;51.312;7.378;2023-04-09T09:09:13;6.73;;;6.03;;
5871;SDS011;2962;51.312;7.378;2023-04-09T09:11:41;6.90;;;6.30;;
5871;SDS011;2962;51.312;7.378;2023-04-09T09:14:11;6.97;;;6.30;;
5871;SDS011;2962;51.312;7.378;2023-04-09T09:16:38;6.37;;;5.87;;
5871;SDS011;2962;51.312;7.378;2023-04-09T09:19:09;7.30;;;6.60;;
5871;SDS011;2962;51.312;7.378;2023-04-09T09:21:56;7.80;;;7.03;;
5871;SDS011;2962;51.312;7.378;2023-04-09T09:24:26;8.10;;;7.33;;
5871;SDS011;2962;51.312;7.378;2023-04-09T09:26:52;7.63;;;6.90;;
5871;SDS011;2962;51.312;7.378;2023-04-09T09:29:21;13.83;;;7.30;;
5871;SDS011;2962;51.312;7.378;2023-04-09T09:31:47;7.23;;;6.50;;
5871;SDS011;2962;51.312;7.378;2023-04-09T09:34:14;8.73;;;7.50;;
5871;SDS011;2962;51.312;7.378;2023-04-09T09:36:41;8.03;;;7.10;;
5871;SDS011;2962;51.312;7.378;2023-04-09T09:39:07;8.10;;;7.30;;
5871;SDS011;2962;51.312;7.378;2023-04-09T09:41:37;7.73;;;6.90;;
5871;SDS011;2962;51.312;7.378;2023-04-09T09:44:03;7.90;;;7.03;;
5871;SDS011;2962;51.312;7.378;2023-04-09T09:46:33;6.73;;;6.13;;
5871;SDS011;2962;51.312;7.378;2023-04-09T09:48:59;12.83;;;6.80;;
5871;SDS011;2962;51.312;7.378;2023-04-09T09:51:25;7.07;;;6.57;;
5871;SDS011;2962;51.312;7.378;2023-04-09T09:53:53;11.57;;;8.23;;
5871;SDS011;2962;51.312;7.378;2023-04-09T09:56:21;7.63;;;7.03;;
5871;SDS011;2962;51.312;7.378;2023-04-09T09:59:00;9.23;;;8.33;;
5871;SDS011;2962;51.312;7.378;2023-04-09T10:01:30;8.57;;;7.80;;
5871;SDS011;2962;51.312;7.378;2023-04-09T10:03:58;8.03;;;7.33;;
5871;SDS011;2962;51.312;7.378;2023-04-09T10:06:24;6.67;;;6.10;;
5871;SDS011;2962;51.312;7.378;2023-04-09T10:08:51;6.93;;;6.33;;
5871;SDS011;2962;51.312;7.378;2023-04-09T10:11:20;7.80;;;7.10;;
5871;SDS011;2962;51.312;7.378;2023-04-09T10:13:52;7.73;;;7.03;;
5871;SDS011;2962;51.312;7.378;2023-04-09T10:16:21;9.27;;;8.23;;
5871;SDS011;2962;51.312;7.378;2023-04-09T10:18:47;7.73;;;7.03;;
5871;SDS011;2962;51.312;7.378;2023-04-09T10:21:30;12.40;;;7.37;;
5871;SDS011;2962;51.312;7.378;2023-04-09T10:23:57;8.03;;;7.33;;
5871;SDS011;2962;51.312;7.378;2023-04-09T10:26:24;9.57;;;8.67;;
5871;SDS011;2962;51.312;7.378;2023-04-09T10:29:07;8.90;;;8.00;;
5871;SDS011;2962;51.312;7.378;2023-04-09T10:31:44;9.50;;;8.60;;
5871;SDS011;2962;51.312;7.378;2023-04-09T10:34:12;11.70;;;8.33;;
5871;SDS011;2962;51.312;7.378;2023-04-09T10:36:41;8.23;;;7.10;;
5871;SDS011;2962;51.312;7.378;2023-04-09T10:39:10;8.10;;;7.37;;
5871;SDS011;2962;51.312;7.378;2023-04-09T10:41:37;8.03;;;7.27;;
5871;SDS011;2962;51.312;7.378;2023-04-09T10:44:05;6.57;;;5.97;;
5871;SDS011;2962;51.312;7.378;2023-04-09T10:46:34;8.50;;;7.77;;
5871;SDS011;2962;51.312;7.378;2023-04-09T10:49:07;8.60;;;7.80;;
5871;SDS011;2962;51.312;7.378;2023-04-09T10:51:37;7.93;;;7.33;;
5871;SDS011;2962;51.312;7.378;2023-04-09T10:54:04;7.87;;;7.17;;
5871;SDS011;2962;51.312;7.378;2023-04-09T10:56:30;7.23;;;6.63;;
5871;SDS011;2962;51.312;7.378;2023-04-09T10:58:55;7.70;;;7.00;;
5871;SDS011;2962;51.312;7.378;2023-04-09T11:01:21;8.10;;;7.40;;
5871;SDS011;2962;51.312;7.378;2023-04-09T11:03:46;9.60;;;8.37;;
5871;SDS011;2962;51.312;7.378;2023-04-09T11:06:34;8.30;;;7.37;;
5871;SDS011;2962;51.312;7.378;2023-04-09T11:09:01;8.83;;;8.10;;
5871;SDS011;2962;51.312;7.378;2023-04-09T11:11:29;8.30;;;7.60;;
5871;SDS011;2962;51.312;7.378;2023-04-09T11:13:58;8.40;;;7.70;;
5871;SDS011;2962;51.312;7.378;2023-04-09T11:16:25;12.80;;;8.10;;
5871;SDS011;2962;51.312;7.378;2023-04-09T11:18:53;8.87;;;8.10;;
5871;SDS011;2962;51.312;7.378;2023-04-09T11:21:20;7.33;;;6.73;;
5871;SDS011;2962;51.312;7.378;2023-04-09T11:23:50;9.10;;;7.40;;
5871;SDS011;2962;51.312;7.378;2023-04-09T11:26:23;8.00;;;7.40;;
5871;SDS011;2962;51.312;7.378;2023-04-09T11:28:54;11.60;;;8.27;;
5871;SDS011;2962;51.312;7.378;2023-04-09T11:31:25;8.30;;;7.60;;
5871;SDS011;2962;51.312;7.378;2023-04-09T11:33:51;7.40;;;6.33;;
5871;SDS011;2962;51.312;7.378;2023-04-09T11:36:16;8.83;;;7.93;;
5871;SDS011;2962;51.312;7.378;2023-04-09T11:38:42;7.60;;;6.90;;
5871;SDS011;2962;51.312;7.378;2023-04-09T11:41:07;8.50;;;7.70;;
5871;SDS011;2962;51.312;7.378;2023-04-09T11:43:36;7.00;;;6.43;;
5871;SDS011;2962;51.312;7.378;2023-04-09T11:46:02;7.80;;;7.10;;
5871;SDS011;2962;51.312;7.378;2023-04-09T11:48:29;7.13;;;6.63;;
5871;SDS011;2962;51.312;7.378;2023-04-09T11:50:54;8.87;;;8.07;;
5871;SDS011;2962;51.312;7.378;2023-04-09T11:53:21;7.60;;;7.00;;
5871;SDS011;2962;51.312;7.378;2023-04-09T11:55:50;8.73;;;7.93;;
5871;SDS011;2962;51.312;7.378;2023-04-09T11:58:17;8.10;;;7.40;;
5871;SDS011;2962;51.312;7.378;2023-04-09T12:00:43;7.70;;;6.90;;
5871;SDS011;2962;51.312;7.378;2023-04-09T12:03:09;7.90;;;7.30;;
5871;SDS011;2962;51.312;7.378;2023-04-09T12:05:35;6.47;;;6.07;;
5871;SDS011;2962;51.312;7.378;2023-04-09T12:08:02;7.43;;;6.83;;
5871;SDS011;2962;51.312;7.378;2023-04-09T12:10:33;7.27;;;6.77;;
5871;SDS011;2962;51.312;7.378;2023-04-09T12:13:01;7.53;;;6.90;;
5871;SDS011;2962;51.312;7.378;2023-04-09T12:15:30;8.13;;;7.43;;
5871;SDS011;2962;51.312;7.378;2023-04-09T12:17:59;7.40;;;6.80;;
5871;SDS011;2962;51.312;7.378;2023-04-09T12:22:54;7.53;;;6.83;;
5871;SDS011;2962;51.312;7.378;2023-04-09T12:25:20;7.97;;;7.23;;
5871;SDS011;2962;51.312;7.378;2023-04-09T12:27:45;6.77;;;6.23;;
5871;SDS011;2962;51.312;7.378;2023-04-09T12:30:11;8.20;;;7.40;;
5871;SDS011;2962;51.312;7.378;2023-04-09T12:32:36;7.63;;;7.07;;
5871;SDS011;2962;51.312;7.378;2023-04-09T12:35:02;7.87;;;7.20;;
5871;SDS011;2962;51.312;7.378;2023-04-09T12:37:28;6.43;;;6.03;;
5871;SDS011;2962;51.312;7.378;2023-04-09T12:39:53;6.93;;;6.33;;
5871;SDS011;2962;51.312;7.378;2023-04-09T12:42:19;6.53;;;6.13;;
5871;SDS011;2962;51.312;7.378;2023-04-09T12:44:44;7.13;;;6.50;;
5871;SDS011;2962;51.312;7.378;2023-04-09T12:47:10;7.10;;;6.60;;
5871;SDS011;2962;51.312;7.378;2023-04-09T12:49:35;7.47;;;6.77;;
5871;SDS011;2962;51.312;7.378;2023-04-09T12:52:00;7.03;;;6.40;;
5871;SDS011;2962;51.312;7.378;2023-04-09T12:54:25;7.97;;;7.27;;
5871;SDS011;2962;51.312;7.378;2023-04-09T12:56:51;6.57;;;6.07;;
5871;SDS011;2962;51.312;7.378;2023-04-09T12:59:16;6.23;;;5.83;;
5871;SDS011;2962;51.312;7.378;2023-04-09T13:01:41;6.00;;;5.70;;
5871;SDS011;2962;51.312;7.378;2023-04-09T13:04:07;6.60;;;6.20;;
5871;SDS011;2962;51.312;7.378;2023-04-09T13:06:32;5.83;;;5.53;;
5871;SDS011;2962;51.312;7.378;2023-04-09T13:08:57;6.50;;;6.00;;
5871;SDS011;2962;51.312;7.378;2023-04-09T13:11:23;5.90;;;5.43;;
5871;SDS011;2962;51.312;7.378;2023-04-09T13:13:48;6.73;;;6.30;;
5871;SDS011;2962;51.312;7.378;2023-04-09T13:16:13;6.73;;;6.23;;
5871;SDS011;2962;51.312;7.378;2023-04-09T13:18:38;6.20;;;5.80;;
5871;SDS011;2962;51.312;7.378;2023-04-09T13:21:04;6.43;;;6.03;;
5871;SDS011;2962;51.312;7.378;2023-04-09T13:23:29;6.10;;;5.50;;
5871;SDS011;2962;51.312;7.378;2023-04-09T13:25:55;6.13;;;5.73;;
5871;SDS011;2962;51.312;7.378;2023-04-09T13:28:20;6.30;;;5.70;;
5871;SDS011;2962;51.312;7.378;2023-04-09T13:30:46;5.83;;;5.63;;
5871;SDS011;2962;51.312;7.378;2023-04-09T13:33:12;6.30;;;5.97;;
5871;SDS011;2962;51.312;7.378;2023-04-09T13:35:37;6.83;;;6.30;;
5871;SDS011;2962;51.312;7.378;2023-04-09T13:38:02;5.70;;;5.30;;
5871;SDS011;2962;51.312;7.378;2023-04-09T13:40:27;6.50;;;6.20;;
5871;SDS011;2962;51.312;7.378;2023-04-09T13:42:53;6.77;;;6.27;;
5871;SDS011;2962;51.312;7.378;2023-04-09T13:45:18;5.67;;;5.27;;
5871;SDS011;2962;51.312;7.378;2023-04-09T13:47:44;6.13;;;5.73;;
5871;SDS011;2962;51.312;7.378;2023-04-09T13:50:10;6.00;;;5.70;;
5871;SDS011;2962;51.312;7.378;2023-04-09T13:52:37;5.53;;;5.23;;
5871;SDS011;2962;51.312;7.378;2023-04-09T13:55:02;9.30;;;8.50;;
5871;SDS011;2962;51.312;7.378;2023-04-09T13:57:28;5.70;;;5.40;;
5871;SDS011;2962;51.312;7.378;2023-04-09T13:59:54;5.77;;;5.47;;
5871;SDS011;2962;51.312;7.378;2023-04-09T14:02:19;5.27;;;4.97;;
5871;SDS011;2962;51.312;7.378;2023-04-09T14:04:44;5.70;;;5.40;;
5871;SDS011;2962;51.312;7.378;2023-04-09T14:07:10;6.30;;;5.80;;
5871;SDS011;2962;51.312;7.378;2023-04-09T14:09:35;5.60;;;5.27;;
5871;SDS011;2962;51.312;7.378;2023-04-09T14:12:00;6.40;;;5.87;;
5871;SDS011;2962;51.312;7.378;2023-04-09T14:14:26;5.73;;;5.43;;
5871;SDS011;2962;51.312;7.378;2023-04-09T14:16:51;5.80;;;5.40;;
5871;SDS011;2962;51.312;7.378;2023-04-09T14:19:17;5.77;;;5.47;;
5871;SDS011;2962;51.312;7.378;2023-04-09T14:21:42;5.70;;;5.30;;
5871;SDS011;2962;51.312;7.378;2023-04-09T14:24:08;5.57;;;5.17;;
5871;SDS011;2962;51.312;7.378;2023-04-09T14:26:33;6.03;;;5.57;;
5871;SDS011;2962;51.312;7.378;2023-04-09T14:28:58;7.33;;;6.70;;
5871;SDS011;2962;51.312;7.378;2023-04-09T14:31:24;5.63;;;5.33;;
5871;SDS011;2962;51.312;7.378;2023-04-09T14:33:49;5.97;;;5.60;;
5871;SDS011;2962;51.312;7.378;2023-04-09T14:36:14;5.80;;;5.40;;
5871;SDS011;2962;51.312;7.378;2023-04-09T14:38:40;5.60;;;5.40;;
5871;SDS011;2962;51.312;7.378;2023-04-09T14:41:05;5.97;;;5.67;;
5871;SDS011;2962;51.312;7.378;2023-04-09T14:43:31;6.03;;;5.30;;
5871;SDS011;2962;51.312;7.378;2023-04-09T14:45:56;5.30;;;5.07;;
5871;SDS011;2962;51.312;7.378;2023-04-09T14:48:22;5.20;;;5.00;;
5871;SDS011;2962;51.312;7.378;2023-04-09T14:50:47;4.73;;;4.53;;
5871;SDS011;2962;51.312;7.378;2023-04-09T14:53:15;4.77;;;4.50;;
5871;SDS011;2962;51.312;7.378;2023-04-09T14:55:40;5.90;;;5.50;;
5871;SDS011;2962;51.312;7.378;2023-04-09T14:58:05;5.70;;;5.47;;
5871;SDS011;2962;51.312;7.378;2023-04-09T15:00:32;5.20;;;5.00;;
5871;SDS011;2962;51.312;7.378;2023-04-09T15:02:57;5.53;;;5.33;;
5871;SDS011;2962;51.312;7.378;2023-04-09T15:05:23;5.00;;;4.80;;
5871;SDS011;2962;51.312;7.378;2023-04-09T15:07:49;5.03;;;4.83;;